Terminal Aerodrome Forecast
Issued by NWS

Home | Current Version | Previous Version | Graphics & Text | Print | Product List | Glossary On
Versions: 1 2 3 4 5 6 7 8 9 10 11 12 13 14 15 16
483
FTUS43 KMPX 240520
TAFRNH
TAF
KRNH 240520Z 2406/2506 20005KT P6SM SCT040 SCT090
     FM240900 VRB03KT 4SM BR SCT009 SCT020 SCT100
      TEMPO 2409/2413 2SM BR BKN009
     FM241400 VRB04KT P6SM SCT180=

USA.gov is the U.S. government's official web portal to all federal, state and local government web resources and services.